Decoded Metar for K2V5 ( in ) (IATA:) | Meteo·Mobile Aviation Weather
aviador You're here:

K2V5 Decoded Metar

in
Report Time2018-12-10 11:15:00
UTC Time2018-12-10 11:32:51
Flight Rules vfr VFR
Wind260° at 04 kt
W.Rank260° ranks 2
Current wind is below 260° avg. (6.0)
Visibility9999 m
Phenomena:N/A
Clouds:N/A
Expected CloudBase > 800 ft AGL from Temp-Dew spread
CeilingNone
Temp-10°C
Dew Point-12°C (85% RH)
AAT-14.6°C
QNH1024 hPa
Raw Report
K2V5 101115Z AUTO 26004KT 10SM CLR M10/M12 A3025 RMK AO2=

Extra information for K2V5:More info

Social comments